Time;durP1;ratioP1;P1;durP2;ratioP2;P2;SDS_P1;SDS_P2;PMS_P1;PMS_P2;Temp;Humidity;BMP_temperature;BMP_pressure;BME280_temperature;BME280_humidity;BME280_pressure;Samples;Min_cycle;Max_cycle;Signal;HPM_P1;HPM_P2
2021/05/08 00:00:41;;;;;;;2.80;1.70;;;;;;;4.11;78.51;100169.83;106033;1104;78668;-72
2021/05/08 00:02:52;;;;;;;2.60;1.60;;;;;;;4.15;78.34;100165.00;106032;1104;78431;-71
2021/05/08 00:04:57;;;;;;;2.70;1.70;;;;;;;4.12;78.42;100165.33;106019;1105;77303;-73
2021/05/08 00:07:02;;;;;;;2.20;1.30;;;;;;;4.18;78.57;100170.88;106035;1104;77045;-72
2021/05/08 00:09:09;;;;;;;2.20;1.50;;;;;;;4.23;78.52;100178.43;106029;1098;78369;-72
2021/05/08 00:11:23;;;;;;;2.20;1.40;;;;;;;4.29;78.57;100167.13;106083;1097;76930;-73
2021/05/08 00:13:35;;;;;;;3.00;1.60;;;;;;;4.36;78.40;100170.88;106034;1104;79086;-71
2021/05/08 00:15:49;;;;;;;2.50;1.80;;;;;;;4.38;78.61;100176.05;106043;1104;78177;-71
2021/05/08 00:17:55;;;;;;;2.40;1.90;;;;;;;4.40;78.59;100182.08;106041;1100;77384;-68
2021/05/08 00:20:03;;;;;;;3.10;1.70;;;;;;;4.37;78.49;100185.09;106069;1104;77924;-67
2021/05/08 00:22:08;;;;;;;2.90;1.90;;;;;;;4.40;78.51;100196.30;106017;1104;78915;-66
2021/05/08 00:24:14;;;;;;;2.80;1.90;;;;;;;4.45;78.45;100190.50;106022;1105;78531;-67
2021/05/08 00:26:19;;;;;;;2.30;1.80;;;;;;;4.51;78.47;100192.53;106069;1104;78615;-70
2021/05/08 00:28:24;;;;;;;3.20;2.10;;;;;;;4.53;78.53;100188.70;106042;1104;77960;-74
2021/05/08 00:30:30;;;;;;;2.90;2.10;;;;;;;4.53;78.57;100195.91;106018;1105;78936;-71
2021/05/08 00:32:35;;;;;;;2.20;1.80;;;;;;;4.44;78.54;100195.00;106033;1104;77121;-69
2021/05/08 00:34:40;;;;;;;2.50;1.80;;;;;;;4.47;78.61;100201.88;106054;1104;78202;-67
2021/05/08 00:36:45;;;;;;;3.10;2.10;;;;;;;4.55;78.64;100205.46;106033;1104;79111;-68
2021/05/08 00:38:50;;;;;;;3.80;1.90;;;;;;;4.58;78.59;100198.95;106062;1104;78830;-67
2021/05/08 00:40:55;;;;;;;3.10;2.30;;;;;;;4.60;78.57;100188.93;106045;1104;77508;-67
2021/05/08 00:43:01;;;;;;;3.00;2.20;;;;;;;4.64;78.49;100201.02;106008;1104;76993;-67
2021/05/08 00:45:09;;;;;;;3.20;1.90;;;;;;;4.64;78.52;100204.50;106030;1104;78665;-66
2021/05/08 00:47:15;;;;;;;2.80;2.00;;;;;;;4.67;78.62;100204.19;106042;1104;77633;-67
2021/05/08 00:49:21;;;;;;;2.90;2.00;;;;;;;4.74;78.46;100201.74;106042;1104;78958;-67
2021/05/08 00:51:26;;;;;;;2.60;2.10;;;;;;;4.78;78.56;100208.44;106031;1104;78542;-67
2021/05/08 00:53:31;;;;;;;3.80;1.90;;;;;;;4.76;78.50;100205.09;106020;1104;77096;-67
2021/05/08 00:55:37;;;;;;;3.20;2.20;;;;;;;4.78;78.60;100209.29;106043;1105;78677;-68
2021/05/08 00:57:42;;;;;;;2.70;2.00;;;;;;;4.73;78.56;100224.13;106057;1104;77535;-68
2021/05/08 00:59:48;;;;;;;4.70;2.20;;;;;;;4.69;78.65;100214.75;106036;1104;78396;-67
2021/05/08 01:01:53;;;;;;;3.60;2.40;;;;;;;4.68;78.68;100229.96;106039;1104;78850;-66
2021/05/08 01:04:00;;;;;;;4.30;1.90;;;;;;;4.67;78.83;100227.42;106020;1103;78425;-67
2021/05/08 01:06:08;;;;;;;3.20;2.00;;;;;;;4.69;78.87;100228.98;106074;1104;78492;-68
2021/05/08 01:08:14;;;;;;;3.10;2.40;;;;;;;4.68;78.91;100229.12;106065;1104;78867;-68
2021/05/08 01:10:19;;;;;;;2.80;2.10;;;;;;;4.72;78.97;100243.88;106044;1104;76967;-69
2021/05/08 01:12:25;;;;;;;3.10;2.30;;;;;;;4.76;78.82;100237.20;106050;1099;78290;-68
2021/05/08 01:14:30;;;;;;;5.60;2.40;;;;;;;4.78;78.90;100240.55;106044;1104;78784;-67
2021/05/08 01:16:35;;;;;;;3.00;2.50;;;;;;;4.81;78.92;100244.78;106030;1104;78393;-67
2021/05/08 01:18:40;;;;;;;3.60;2.90;;;;;;;4.71;79.15;100232.33;106053;1104;79427;-66
2021/05/08 01:20:48;;;;;;;5.50;3.20;;;;;;;4.74;79.01;100240.05;106027;1104;77785;-66
2021/05/08 01:22:53;;;;;;;4.10;2.80;;;;;;;4.76;79.12;100234.53;106038;1104;79031;-70
2021/05/08 01:24:58;;;;;;;4.40;3.20;;;;;;;4.84;78.95;100231.06;106016;1105;77634;-68
2021/05/08 01:27:03;;;;;;;6.80;3.60;;;;;;;4.90;79.05;100231.28;106020;1104;78272;-66
2021/05/08 01:29:11;;;;;;;4.20;3.50;;;;;;;4.90;79.07;100236.64;106049;1104;77772;-66
2021/05/08 01:31:17;;;;;;;5.30;3.70;;;;;;;4.87;79.06;100236.95;106036;1104;78153;-68
2021/05/08 01:33:22;;;;;;;5.40;4.00;;;;;;;4.88;79.03;100237.80;106009;1104;77325;-68
2021/05/08 01:35:29;;;;;;;5.70;3.90;;;;;;;4.83;79.26;100240.95;106018;1104;77990;-70
2021/05/08 01:37:35;;;;;;;5.60;4.30;;;;;;;4.84;78.96;100242.61;106030;1104;77909;-66
2021/05/08 01:39:40;;;;;;;6.00;4.50;;;;;;;4.88;79.08;100243.15;106033;1104;77262;-66
2021/05/08 01:41:46;;;;;;;5.40;4.80;;;;;;;4.93;79.11;100248.87;106017;1103;77398;-68
2021/05/08 01:43:51;;;;;;;5.40;4.30;;;;;;;4.91;79.05;100254.39;106046;1104;77136;-69
2021/05/08 01:45:56;;;;;;;5.40;4.60;;;;;;;4.94;79.19;100251.41;106024;1105;77217;-68
2021/05/08 01:48:07;;;;;;;7.20;4.30;;;;;;;4.98;79.07;100255.43;106039;1104;78688;-70
2021/05/08 01:50:15;;;;;;;6.20;4.70;;;;;;;4.97;79.26;100259.09;106039;1103;77473;-69
2021/05/08 01:52:20;;;;;;;5.50;4.40;;;;;;;4.96;79.15;100252.08;106055;1104;77224;-66
2021/05/08 01:54:28;;;;;;;6.60;4.60;;;;;;;4.96;79.34;100261.94;106050;1104;78668;-66
2021/05/08 01:56:33;;;;;;;6.00;5.10;;;;;;;4.94;79.37;100256.76;106026;1104;78740;-66
2021/05/08 01:58:38;;;;;;;5.80;4.90;;;;;;;4.93;79.52;100259.57;106020;1104;77703;-66
2021/05/08 02:00:47;;;;;;;5.70;4.90;;;;;;;4.99;79.38;100267.83;106029;1104;77674;-66
2021/05/08 02:02:55;;;;;;;6.10;5.20;;;;;;;5.00;79.50;100264.13;106025;1104;77118;-66
2021/05/08 02:05:04;;;;;;;7.30;5.20;;;;;;;5.04;79.52;100254.80;106046;1104;77786;-66
2021/05/08 02:07:09;;;;;;;6.10;5.20;;;;;;;5.12;79.43;100256.69;106043;1104;77728;-66
2021/05/08 02:09:14;;;;;;;6.90;5.20;;;;;;;5.05;79.40;100261.85;106042;1104;78724;-66
2021/05/08 02:11:20;;;;;;;6.40;5.20;;;;;;;5.08;79.37;100264.19;106043;1104;78715;-66
2021/05/08 02:13:25;;;;;;;7.40;5.60;;;;;;;5.05;79.38;100264.53;106094;1097;76701;-67
2021/05/08 02:15:31;;;;;;;6.60;5.40;;;;;;;5.07;79.39;100280.42;106024;1105;79670;-65
2021/05/08 02:17:36;;;;;;;7.00;5.90;;;;;;;5.07;79.47;100273.23;106049;1104;79815;-69
2021/05/08 02:19:44;;;;;;;8.20;5.80;;;;;;;5.09;79.59;100268.55;106036;1105;78304;-69
2021/05/08 02:21:52;;;;;;;6.70;5.20;;;;;;;5.13;79.62;100280.64;106038;1105;78320;-66
2021/05/08 02:23:57;;;;;;;8.40;5.30;;;;;;;5.18;79.42;100275.66;106054;1104;79200;-66
2021/05/08 02:26:02;;;;;;;7.40;5.30;;;;;;;5.24;79.56;100280.38;106024;1104;80295;-67
2021/05/08 02:28:08;;;;;;;6.80;5.50;;;;;;;5.24;79.37;100282.22;106046;1105;77317;-66
2021/05/08 02:30:17;;;;;;;6.90;5.30;;;;;;;5.24;79.42;100287.57;106030;1104;78535;-65
2021/05/08 02:32:22;;;;;;;6.40;5.30;;;;;;;5.26;79.57;100286.41;106027;1104;77484;-65
2021/05/08 02:34:27;;;;;;;6.80;5.50;;;;;;;5.27;79.23;100288.07;106045;1104;77009;-66
2021/05/08 02:36:32;;;;;;;6.30;5.30;;;;;;;5.20;79.32;100279.00;106002;1104;79511;-66
2021/05/08 02:38:37;;;;;;;6.90;5.70;;;;;;;5.19;79.46;100297.92;106062;1104;78660;-66
2021/05/08 02:40:47;;;;;;;6.80;5.30;;;;;;;5.16;79.39;100296.40;106038;1104;78328;-66
2021/05/08 02:42:53;;;;;;;6.30;5.30;;;;;;;5.18;79.22;100304.27;106055;1104;78624;-69
2021/05/08 02:45:01;;;;;;;6.40;5.10;;;;;;;5.19;79.28;100305.95;106040;1104;77885;-68
2021/05/08 02:47:16;;;;;;;8.40;5.60;;;;;;;5.15;79.34;100316.13;106034;1104;78670;-66
2021/05/08 02:49:22;;;;;;;5.90;5.00;;;;;;;5.09;79.49;100311.39;106037;1104;79145;-66
2021/05/08 02:51:27;;;;;;;8.70;5.90;;;;;;;5.11;79.50;100314.74;106047;1104;77221;-68
2021/05/08 02:53:32;;;;;;;7.30;5.40;;;;;;;5.13;79.35;100319.95;106053;1097;77921;-68
2021/05/08 02:55:37;;;;;;;6.10;5.50;;;;;;;5.09;79.23;100327.45;106038;1104;77132;-68
2021/05/08 02:57:42;;;;;;;5.90;4.50;;;;;;;5.07;79.25;100317.91;106037;1104;79753;-68
2021/05/08 02:59:50;;;;;;;6.50;5.00;;;;;;;5.06;79.31;100329.59;106032;1104;79079;-68
2021/05/08 03:01:55;;;;;;;6.30;5.50;;;;;;;5.05;79.52;100331.45;106055;1104;77286;-68
2021/05/08 03:04:04;;;;;;;6.10;5.40;;;;;;;5.02;79.56;100337.12;106027;1104;78529;-68
2021/05/08 03:06:12;;;;;;;7.60;6.00;;;;;;;5.03;79.43;100330.75;106056;1104;77555;-69
2021/05/08 03:08:17;;;;;;;6.90;5.50;;;;;;;5.05;79.75;100331.45;106064;1104;77111;-69
2021/05/08 03:10:22;;;;;;;6.50;5.80;;;;;;;5.09;79.69;100338.16;106030;1105;77865;-69
2021/05/08 03:12:30;;;;;;;6.40;5.70;;;;;;;5.13;79.67;100344.91;106051;1103;78575;-66
2021/05/08 03:14:36;;;;;;;7.20;5.50;;;;;;;5.15;79.80;100337.55;106020;1104;77932;-66
2021/05/08 03:16:42;;;;;;;7.40;5.60;;;;;;;5.18;79.80;100337.23;106032;1104;77102;-66
2021/05/08 03:18:47;;;;;;;7.50;5.80;;;;;;;5.16;80.14;100349.95;106034;1104;78558;-66
2021/05/08 03:20:52;;;;;;;6.20;5.20;;;;;;;5.22;80.02;100351.13;106045;1105;78692;-67
2021/05/08 03:22:57;;;;;;;6.00;5.00;;;;;;;5.31;79.93;100351.05;106019;1104;77216;-66
2021/05/08 03:25:02;;;;;;;10.00;5.30;;;;;;;5.33;79.84;100349.05;106041;1104;77327;-66
2021/05/08 03:27:08;;;;;;;8.10;4.90;;;;;;;5.31;79.83;100364.44;106057;1105;77969;-69
2021/05/08 03:29:13;;;;;;;6.00;4.80;;;;;;;5.35;79.86;100360.47;106057;1105;78072;-68
2021/05/08 03:31:18;;;;;;;7.30;4.60;;;;;;;5.39;80.02;100360.97;106036;1104;77099;-68
2021/05/08 03:33:23;;;;;;;5.30;4.30;;;;;;;5.42;79.85;100362.49;106025;1104;77281;-68
2021/05/08 03:35:28;;;;;;;5.30;4.50;;;;;;;5.49;80.01;100366.24;106034;1104;78665;-68
2021/05/08 03:37:37;;;;;;;5.20;4.30;;;;;;;5.49;79.94;100374.28;106032;1103;78427;-66
2021/05/08 03:39:42;;;;;;;5.00;4.50;;;;;;;5.53;79.97;100373.80;106059;1104;77065;-66
2021/05/08 03:41:47;;;;;;;6.40;5.70;;;;;;;5.59;79.71;100378.53;106037;1104;78793;-66
2021/05/08 03:43:55;;;;;;;6.50;5.20;;;;;;;5.63;79.76;100381.74;106024;1105;77656;-66
2021/05/08 03:46:00;;;;;;;6.80;5.10;;;;;;;5.71;79.67;100373.75;106017;1105;78239;-68
2021/05/08 03:48:07;;;;;;;6.60;5.00;;;;;;;5.75;79.85;100373.27;106025;1104;79024;-69
2021/05/08 03:50:13;;;;;;;6.50;5.00;;;;;;;5.81;79.98;100382.51;106023;1104;77979;-69
2021/05/08 03:52:18;;;;;;;6.10;5.00;;;;;;;5.72;79.87;100383.45;106092;1097;77328;-66
2021/05/08 03:54:23;;;;;;;4.80;4.30;;;;;;;5.68;79.63;100384.78;106051;1104;78836;-66
2021/05/08 03:56:28;;;;;;;5.40;4.80;;;;;;;5.59;79.52;100383.89;106052;1104;77070;-68
2021/05/08 03:58:33;;;;;;;5.50;5.00;;;;;;;5.60;79.43;100387.41;106039;1104;78533;-68
2021/05/08 04:00:39;;;;;;;4.70;4.10;;;;;;;5.61;79.71;100391.76;106039;1105;77070;-68
2021/05/08 04:02:46;;;;;;;5.80;5.00;;;;;;;5.65;79.63;100393.14;106059;1105;77632;-67
2021/05/08 04:04:52;;;;;;;7.50;4.90;;;;;;;5.67;79.69;100397.34;106031;1104;78955;-67
2021/05/08 04:06:57;;;;;;;5.60;4.90;;;;;;;5.71;79.48;100403.23;106047;1104;78097;-69
2021/05/08 04:09:02;;;;;;;5.40;4.70;;;;;;;5.69;79.57;100407.88;106050;1104;78029;-68
2021/05/08 04:11:10;;;;;;;6.00;5.10;;;;;;;5.66;79.56;100401.00;106044;1104;78198;-70
2021/05/08 04:13:17;;;;;;;7.30;4.70;;;;;;;5.69;79.81;100411.41;106031;1104;78284;-69
2021/05/08 04:15:23;;;;;;;5.70;4.90;;;;;;;5.76;79.72;100411.63;106037;1104;78214;-69
2021/05/08 04:17:28;;;;;;;5.90;4.90;;;;;;;5.84;79.52;100407.16;106043;1104;77555;-67
2021/05/08 04:19:33;;;;;;;6.10;5.40;;;;;;;5.93;79.77;100408.09;106040;1104;78927;-67
2021/05/08 04:21:41;;;;;;;5.60;5.10;;;;;;;6.05;79.77;100414.84;106053;1104;77955;-69
2021/05/08 04:23:46;;;;;;;6.70;5.10;;;;;;;6.12;79.66;100413.21;106028;1104;77509;-69
2021/05/08 04:25:51;;;;;;;5.50;4.80;;;;;;;6.22;79.54;100430.02;106021;1104;77407;-68
2021/05/08 04:27:56;;;;;;;7.50;5.90;;;;;;;6.36;79.66;100426.73;106031;1104;78311;-67
2021/05/08 04:30:01;;;;;;;6.40;5.20;;;;;;;6.51;79.86;100427.77;106064;1104;78668;-67
2021/05/08 04:32:07;;;;;;;6.80;5.70;;;;;;;6.56;79.33;100429.14;106052;1104;78136;-67
2021/05/08 04:34:12;;;;;;;5.80;5.20;;;;;;;6.40;79.04;100438.80;106041;1104;78885;-66
2021/05/08 04:36:17;;;;;;;5.70;4.80;;;;;;;6.30;79.01;100439.93;106045;1105;78683;-69
2021/05/08 04:38:22;;;;;;;6.50;5.00;;;;;;;6.28;79.03;100445.47;106027;1104;77208;-70
2021/05/08 04:40:28;;;;;;;5.90;5.00;;;;;;;6.30;79.21;100451.51;106049;1104;78764;-69
2021/05/08 04:42:36;;;;;;;5.70;5.10;;;;;;;6.31;79.19;100446.98;106048;1104;78325;-69
2021/05/08 04:44:41;;;;;;;4.90;4.30;;;;;;;6.32;78.93;100448.65;106058;1105;77594;-69
2021/05/08 04:46:48;;;;;;;6.60;4.90;;;;;;;6.32;78.97;100451.34;106030;1104;78705;-66
2021/05/08 04:48:55;;;;;;;8.00;5.40;;;;;;;6.26;78.97;100460.86;106014;1105;77190;-66
2021/05/08 04:51:01;;;;;;;6.20;5.00;;;;;;;6.25;78.97;100453.84;106046;1105;78817;-69
2021/05/08 04:53:09;;;;;;;5.90;5.10;;;;;;;6.19;78.86;100457.16;106064;1104;78001;-70
2021/05/08 04:55:14;;;;;;;6.60;5.40;;;;;;;6.13;78.93;100456.94;106040;1104;77130;-70
2021/05/08 04:57:19;;;;;;;6.10;5.40;;;;;;;6.18;79.21;100454.64;106032;1104;78816;-70
2021/05/08 04:59:24;;;;;;;7.40;5.10;;;;;;;6.23;78.91;100452.32;106061;1105;78389;-70
2021/05/08 05:01:31;;;;;;;6.20;5.70;;;;;;;6.22;78.96;100456.84;106028;1104;77489;-66
2021/05/08 05:03:36;;;;;;;6.60;5.50;;;;;;;6.26;78.92;100460.86;106050;1104;77946;-64
2021/05/08 05:05:41;;;;;;;7.40;5.30;;;;;;;6.28;78.90;100452.67;106047;1104;77383;-64
2021/05/08 05:07:48;;;;;;;7.80;5.50;;;;;;;6.36;78.93;100464.29;106034;1104;78907;-64
2021/05/08 05:09:57;;;;;;;6.40;5.70;;;;;;;6.45;78.83;100467.85;106030;1105;77956;-64
2021/05/08 05:12:02;;;;;;;7.20;6.20;;;;;;;6.48;78.96;100472.90;106044;1104;77481;-68
2021/05/08 05:14:07;;;;;;;6.80;6.20;;;;;;;6.61;78.98;100472.44;106065;1104;78886;-67
2021/05/08 05:16:16;;;;;;;7.70;6.50;;;;;;;6.74;78.81;100478.17;106043;1098;77974;-67
2021/05/08 05:18:21;;;;;;;7.60;5.90;;;;;;;6.86;79.06;100477.73;106054;1098;77733;-68
2021/05/08 05:20:26;;;;;;;8.70;6.40;;;;;;;7.14;78.79;100478.30;106040;1104;77829;-67
2021/05/08 05:22:31;;;;;;;7.60;6.40;;;;;;;7.35;78.63;100483.19;106059;1104;78855;-65
2021/05/08 05:24:39;;;;;;;7.00;6.40;;;;;;;7.38;78.69;100478.33;106023;1102;77739;-64
2021/05/08 05:26:44;;;;;;;7.10;5.70;;;;;;;7.28;78.16;100482.19;106037;1104;76950;-69
2021/05/08 05:28:49;;;;;;;7.70;6.80;;;;;;;7.24;78.18;100481.66;106059;1104;78072;-68
2021/05/08 05:30:55;;;;;;;7.60;6.60;;;;;;;7.22;78.01;100485.53;106043;1104;78392;-65
2021/05/08 05:33:00;;;;;;;7.90;6.60;;;;;;;7.22;77.84;100489.06;106050;1104;79791;-65
2021/05/08 05:35:07;;;;;;;7.20;6.00;;;;;;;7.11;77.99;100492.88;106034;1105;77000;-65
2021/05/08 05:37:12;;;;;;;8.00;6.40;;;;;;;6.99;78.10;100494.21;106023;1104;78720;-66
2021/05/08 05:39:17;;;;;;;6.40;5.50;;;;;;;6.95;78.06;100492.02;106027;1104;77224;-66
2021/05/08 05:41:22;;;;;;;9.00;5.70;;;;;;;6.90;77.72;100499.70;106048;1104;77680;-66
2021/05/08 05:43:27;;;;;;;7.10;6.00;;;;;;;6.81;78.10;100503.39;106042;1104;78193;-66
2021/05/08 05:45:32;;;;;;;6.40;5.80;;;;;;;6.86;77.79;100503.73;106037;1105;77836;-66
2021/05/08 05:47:37;;;;;;;6.60;5.70;;;;;;;6.92;77.73;100514.64;106029;1097;79286;-70
2021/05/08 05:49:42;;;;;;;7.10;5.80;;;;;;;6.95;78.00;100517.01;106046;1104;78456;-70
2021/05/08 05:51:47;;;;;;;6.30;5.20;;;;;;;6.96;77.96;100509.80;106069;1104;77077;-70
2021/05/08 05:53:56;;;;;;;7.40;5.90;;;;;;;7.00;77.70;100511.17;106050;1105;77955;-70
2021/05/08 05:56:01;;;;;;;6.60;5.80;;;;;;;7.07;77.75;100518.40;106039;1104;78750;-69
2021/05/08 05:58:06;;;;;;;6.00;5.30;;;;;;;7.07;77.70;100520.24;106038;1105;78603;-70
2021/05/08 06:00:15;;;;;;;5.90;5.20;;;;;;;7.14;77.72;100514.04;106040;1105;78196;-69
2021/05/08 06:02:20;;;;;;;6.40;5.50;;;;;;;7.31;77.82;100519.44;106040;1105;78599;-69
2021/05/08 06:04:25;;;;;;;6.30;4.80;;;;;;;7.94;78.49;100527.73;106047;1104;78357;-69
2021/05/08 06:06:30;;;;;;;8.00;5.70;;;;;;;8.42;77.98;100516.91;106065;1104;77843;-68
2021/05/08 06:08:35;;;;;;;5.90;5.30;;;;;;;8.66;77.41;100529.45;106057;1104;77364;-69
2021/05/08 06:10:40;;;;;;;9.90;6.40;;;;;;;8.84;77.01;100528.19;106050;1104;78048;-69
2021/05/08 06:12:45;;;;;;;6.60;5.30;;;;;;;8.76;76.66;100528.22;106053;1104;78794;-69
2021/05/08 06:14:50;;;;;;;6.00;4.80;;;;;;;8.75;76.57;100526.56;106033;1104;78154;-69
2021/05/08 06:16:56;;;;;;;6.00;5.00;;;;;;;8.72;76.54;100532.30;106036;1098;78145;-68
2021/05/08 06:19:01;;;;;;;5.10;4.60;;;;;;;8.65;76.19;100533.98;106037;1104;80280;-70
2021/05/08 06:21:07;;;;;;;6.20;5.70;;;;;;;8.70;76.09;100528.95;106036;1098;78522;-67
2021/05/08 06:23:12;;;;;;;5.70;5.00;;;;;;;8.62;75.90;100536.20;106041;1104;79187;-67
2021/05/08 06:25:17;;;;;;;6.50;5.80;;;;;;;8.62;75.64;100539.75;106046;1104;77884;-67
2021/05/08 06:27:23;;;;;;;5.80;4.70;;;;;;;8.61;75.66;100534.52;106038;1104;77002;-70
2021/05/08 06:29:28;;;;;;;4.70;4.10;;;;;;;8.57;75.75;100536.70;106047;1103;76953;-70
2021/05/08 06:31:33;;;;;;;5.20;4.70;;;;;;;8.80;75.06;100532.26;106028;1103;78299;-70
2021/05/08 06:33:38;;;;;;;4.50;3.90;;;;;;;9.35;75.85;100540.23;106024;1103;79219;-70
2021/05/08 06:35:43;;;;;;;5.00;4.20;;;;;;;10.34;75.23;100536.58;106046;1105;78465;-70
2021/05/08 06:37:51;;;;;;;5.10;4.10;;;;;;;10.64;75.00;100539.12;106026;1099;77404;-70
2021/05/08 06:39:56;;;;;;;4.20;3.80;;;;;;;11.71;74.62;100529.40;106046;1104;78233;-70
2021/05/08 06:42:01;;;;;;;4.20;3.80;;;;;;;13.35;74.12;100531.33;106047;1104;78095;-67
2021/05/08 06:44:08;;;;;;;4.40;3.60;;;;;;;14.24;71.66;100531.88;106046;1105;77623;-67
2021/05/08 06:46:13;;;;;;;4.00;3.50;;;;;;;15.73;70.85;100525.34;106060;1103;78163;-68
2021/05/08 06:48:19;;;;;;;3.40;3.00;;;;;;;16.21;68.51;100520.98;106051;1104;78044;-67
2021/05/08 06:50:25;;;;;;;3.40;2.90;;;;;;;17.70;66.62;100524.13;106026;1104;77150;-67
2021/05/08 06:52:31;;;;;;;5.00;3.00;;;;;;;17.28;63.77;100523.20;106056;1105;77909;-67
2021/05/08 06:54:36;;;;;;;3.80;2.90;;;;;;;15.98;63.48;100536.27;106025;1104;78907;-67
2021/05/08 06:56:41;;;;;;;3.20;2.60;;;;;;;15.00;64.10;100532.16;106032;1104;78298;-68
2021/05/08 06:58:46;;;;;;;3.00;2.60;;;;;;;14.35;63.99;100535.86;106034;1104;77826;-67
2021/05/08 07:00:51;;;;;;;4.20;2.90;;;;;;;13.77;64.64;100545.63;106063;1104;77399;-67
2021/05/08 07:02:56;;;;;;;7.10;2.80;;;;;;;13.24;64.63;100540.05;106039;1104;78392;-67
2021/05/08 07:05:01;;;;;;;3.20;2.60;;;;;;;12.93;64.90;100543.25;106067;1104;77236;-68
2021/05/08 07:07:06;;;;;;;4.20;3.00;;;;;;;12.62;65.29;100550.14;106053;1104;78172;-68
2021/05/08 07:09:11;;;;;;;3.30;3.00;;;;;;;12.63;65.63;100549.95;106039;1104;76889;-68
2021/05/08 07:11:17;;;;;;;4.80;3.20;;;;;;;12.94;66.02;100552.20;106058;1104;76888;-71
2021/05/08 07:13:25;;;;;;;3.60;3.20;;;;;;;14.94;66.23;100549.36;106024;1104;78847;-71
2021/05/08 07:15:30;;;;;;;3.50;3.00;;;;;;;15.37;63.80;100550.44;106024;1105;78328;-71
2021/05/08 07:17:35;;;;;;;4.90;3.60;;;;;;;15.36;63.27;100551.48;106053;1099;78262;-68
2021/05/08 07:19:40;;;;;;;3.60;3.30;;;;;;;16.50;63.00;100541.28;106043;1104;78369;-68
2021/05/08 07:21:45;;;;;;;4.20;3.60;;;;;;;16.25;59.46;100543.19;106031;1104;77274;-68
2021/05/08 07:23:50;;;;;;;3.40;3.10;;;;;;;16.05;61.84;100542.50;106042;1104;77517;-66
2021/05/08 07:25:55;;;;;;;4.40;3.10;;;;;;;16.30;60.08;100551.52;106059;1104;77272;-68
2021/05/08 07:28:14;;;;;;;4.40;2.80;;;;;;;17.43;60.68;100541.92;106027;1104;78308;-67
2021/05/08 07:30:20;;;;;;;4.10;2.70;;;;;;;17.41;57.84;100549.52;106032;1105;77393;-67
2021/05/08 07:32:25;;;;;;;3.70;2.40;;;;;;;16.41;57.34;100548.07;106020;1104;78126;-68
2021/05/08 07:34:31;;;;;;;4.90;2.60;;;;;;;15.24;56.99;100555.95;106067;1104;78408;-67
2021/05/08 07:36:36;;;;;;;3.20;2.30;;;;;;;14.27;57.95;100566.78;106037;1104;77987;-70
2021/05/08 07:38:41;;;;;;;3.10;2.30;;;;;;;13.51;57.96;100562.71;106056;1104;77977;-71
2021/05/08 07:40:50;;;;;;;3.10;2.50;;;;;;;12.88;59.50;100567.39;106043;1104;78711;-70
2021/05/08 07:42:55;;;;;;;3.00;2.20;;;;;;;12.88;60.09;100567.39;106050;1104;76928;-66
2021/05/08 07:45:00;;;;;;;3.70;2.40;;;;;;;13.20;60.77;100565.09;106034;1103;77763;-67
2021/05/08 07:47:05;;;;;;;4.00;2.20;;;;;;;13.31;60.62;100565.35;106061;1104;78856;-71
2021/05/08 07:49:10;;;;;;;3.60;2.20;;;;;;;13.90;60.63;100567.39;106018;1104;79177;-70
2021/05/08 07:51:15;;;;;;;3.60;2.00;;;;;;;15.67;61.93;100562.46;106055;1104;79529;-71
2021/05/08 07:53:21;;;;;;;4.00;2.00;;;;;;;17.13;58.63;100557.43;106062;1104;77332;-71
2021/05/08 07:55:26;;;;;;;3.60;1.90;;;;;;;16.80;56.87;100565.98;106025;1105;79380;-71
2021/05/08 07:57:31;;;;;;;2.50;1.70;;;;;;;17.17;55.85;100561.38;106034;1105;77321;-71
2021/05/08 07:59:37;;;;;;;3.20;1.80;;;;;;;16.71;54.55;100565.44;106032;1099;79466;-72
2021/05/08 08:01:42;;;;;;;3.10;1.90;;;;;;;16.24;55.10;100569.61;106025;1104;78533;-71
2021/05/08 08:03:47;;;;;;;3.80;2.60;;;;;;;15.75;55.56;100559.48;106046;1104;78547;-71
2021/05/08 08:05:52;;;;;;;3.60;2.70;;;;;;;15.93;56.24;100566.92;106001;1103;76848;-69
2021/05/08 08:07:57;;;;;;;4.00;2.10;;;;;;;15.87;55.24;100568.63;106038;1104;77161;-71
2021/05/08 08:10:10;;;;;;;5.80;2.50;;;;;;;15.20;55.11;100565.59;106043;1104;77667;-74
2021/05/08 08:12:17;;;;;;;4.00;2.20;;;;;;;14.64;55.36;100579.73;106054;1104;79819;-72
2021/05/08 08:14:22;;;;;;;4.50;2.30;;;;;;;13.95;55.51;100581.19;106031;1104;79344;-72
2021/05/08 08:16:29;;;;;;;3.10;2.50;;;;;;;13.16;56.15;100578.20;106052;1105;77953;-72
2021/05/08 08:18:37;;;;;;;2.80;2.30;;;;;;;12.99;57.16;100574.16;106062;1104;78079;-71
2021/05/08 08:20:42;;;;;;;4.80;2.40;;;;;;;12.92;57.48;100579.53;106036;1103;78708;-73
2021/05/08 08:22:48;;;;;;;5.20;2.30;;;;;;;12.77;57.50;100580.69;106040;1104;78580;-75
2021/05/08 08:24:55;;;;;;;3.20;1.70;;;;;;;12.82;58.77;100591.77;106070;1105;77890;-70
2021/05/08 08:27:01;;;;;;;3.20;2.40;;;;;;;12.88;58.40;100585.56;106045;1104;77501;-71
2021/05/08 08:29:06;;;;;;;3.40;2.10;;;;;;;12.72;58.44;100589.40;106025;1103;77535;-71
2021/05/08 08:31:11;;;;;;;4.60;2.70;;;;;;;12.47;58.57;100595.49;106042;1098;76993;-68
2021/05/08 08:33:16;;;;;;;4.20;2.00;;;;;;;12.28;58.26;100603.23;106055;1104;77940;-68
2021/05/08 08:35:21;;;;;;;3.40;1.80;;;;;;;12.09;58.72;100593.06;106054;1104;78580;-68
2021/05/08 08:37:27;;;;;;;3.10;2.00;;;;;;;12.08;58.60;100598.69;106074;1104;78605;-70
2021/05/08 08:39:32;;;;;;;2.90;1.80;;;;;;;12.09;58.88;100587.66;106042;1105;78446;-73
2021/05/08 08:41:38;;;;;;;3.50;2.10;;;;;;;11.87;58.43;100598.70;106026;1104;79630;-68
2021/05/08 08:43:45;;;;;;;3.70;1.80;;;;;;;11.77;58.76;100594.44;106044;1104;77894;-69
2021/05/08 08:45:54;;;;;;;3.50;1.70;;;;;;;11.71;59.01;100595.20;106104;1097;77767;-67
2021/05/08 08:47:59;;;;;;;5.00;1.70;;;;;;;12.30;60.07;100595.78;106027;1104;78358;-67
2021/05/08 08:50:08;;;;;;;3.90;2.10;;;;;;;13.68;60.24;100585.70;106049;1103;78806;-66
2021/05/08 08:52:14;;;;;;;4.60;2.40;;;;;;;14.81;59.24;100588.30;106089;1097;77485;-70
2021/05/08 08:54:19;;;;;;;4.20;2.20;;;;;;;15.33;57.57;100592.74;106051;1104;78395;-67
2021/05/08 08:56:26;;;;;;;5.10;2.10;;;;;;;15.11;56.40;100597.64;106025;1105;79438;-68
2021/05/08 08:58:33;;;;;;;3.60;2.00;;;;;;;14.55;55.11;100597.34;106019;1105;78485;-69
2021/05/08 09:00:38;;;;;;;3.30;1.80;;;;;;;14.22;55.58;100592.91;106029;1104;78252;-67
2021/05/08 09:02:45;;;;;;;4.60;2.20;;;;;;;13.73;55.16;100599.53;106036;1104;77998;-71
2021/05/08 09:05:15;;;;;;;3.70;2.00;;;;;;;13.34;55.48;100605.65;106037;1104;78378;-71
2021/05/08 09:07:22;;;;;;;3.00;1.80;;;;;;;13.10;55.93;100616.17;105998;1104;79628;-65
2021/05/08 09:11:50;;;;;;;2.70;1.80;;;;;;;15.08;56.47;100602.70;105992;1104;78474;-62
2021/05/08 09:14:23;;;;;;;3.20;2.00;;;;;;;15.18;54.85;100600.34;106035;1104;77783;-64
2021/05/08 09:16:28;;;;;;;2.40;1.40;;;;;;;14.68;54.12;100605.48;106029;1105;77677;-63
2021/05/08 09:18:36;;;;;;;3.00;1.70;;;;;;;14.36;54.48;100611.77;106057;1104;78429;-63
2021/05/08 09:20:48;;;;;;;2.90;1.80;;;;;;;13.94;53.88;100612.09;106061;1098;77687;-71
2021/05/08 09:22:54;;;;;;;3.70;1.90;;;;;;;13.40;54.16;100609.43;106021;1105;77476;-68
2021/05/08 09:25:07;;;;;;;4.30;2.20;;;;;;;12.96;54.84;100612.52;106041;1105;78824;-69
2021/05/08 09:27:31;;;;;;;2.80;1.60;;;;;;;12.54;55.38;100613.47;106035;1105;78578;-71
2021/05/08 09:29:37;;;;;;;4.10;1.90;;;;;;;12.11;56.06;100623.53;106039;1103;78906;-71
2021/05/08 09:31:55;;;;;;;4.70;1.90;;;;;;;11.95;56.38;100618.34;106026;1104;77348;-66
2021/05/08 09:34:03;;;;;;;3.60;2.30;;;;;;;11.79;56.59;100614.02;105983;1104;79596;-65
2021/05/08 09:36:11;;;;;;;4.10;2.00;;;;;;;11.58;57.19;100615.83;106034;1104;78280;-65
2021/05/08 09:38:22;;;;;;;3.70;2.10;;;;;;;11.58;57.86;100624.79;106008;1104;76904;-66
2021/05/08 09:40:25;;;;;;;2.60;2.00;;;;;;;11.63;58.30;100616.09;106042;1105;78552;-68
2021/05/08 09:42:44;;;;;;;;;;;;;;;12.14;58.67;100617.69;106002;1105;77969;-67
2021/05/08 09:44:59;;;;;;;18.20;3.60;;;;;;;12.59;58.29;100620.99;106006;1104;78375;-59
2021/05/08 09:47:24;;;;;;;10.40;3.10;;;;;;;12.93;57.96;100607.48;106060;1105;78075;-59